Terminal Aerodrome Forecast
Issued by NWS

Home | Current Version | Previous Version | Graphics & Text | Print | Product List | Glossary On
Versions: 1 2 3 4 5 6 7 8 9 10 11 12 13 14 15 16 17
000
FTUS43 KIWX 261044 AAB
TAFSBN
TAF AMD
KSBN 261044Z 2611/2706 32011KT 1SM BR BKN002
      TEMPO 2611/2613 1/2SM FG VV002
     FM261400 33010KT 4SM BR BKN005
     FM261600 36008KT P6SM SCT008 BKN025
     FM262200 05008KT P6SM BKN080=

USA.gov is the U.S. government's official web portal to all federal, state and local government web resources and services.